Time;durP1;ratioP1;P1;durP2;ratioP2;P2;SDS_P1;SDS_P2;PMS_P1;PMS_P2;Temp;Humidity;BMP_temperature;BMP_pressure;BME280_temperature;BME280_humidity;BME280_pressure;Samples;Min_cycle;Max_cycle;Signal;HPM_P1;HPM_P2
2022/01/29 00:01:06;;;;;;;;;;;;;;;;;;4220558;28;1199;-60
2022/01/29 00:03:26;;;;;;;;;;;;;;;;;;4221178;28;1984;-59
2022/01/29 00:05:47;;;;;;;;;;;;;;;;;;4221228;28;1156;-61
2022/01/29 00:08:08;;;;;;;;;;;;;;;;;;4220260;28;1420;-61
2022/01/29 00:10:31;;;;;;;;;;;;;;;;;;4219737;28;1223;-59
2022/01/29 00:12:51;;;;;;;;;;;;;;;;;;4219398;28;1807;-59
2022/01/29 00:15:12;;;;;;;;;;;;;;;;;;4220008;28;1388;-58
2022/01/29 00:17:32;;;;;;;;;;;;;;;;;;4218148;28;1354;-58
2022/01/29 00:19:53;;;;;;;;;;;;;;;;;;4218283;28;1773;-58
2022/01/29 00:22:13;;;;;;;;;;;;;;;;;;4217103;28;1547;-59
2022/01/29 00:24:33;;;;;;;;;;;;;;;;;;4203867;28;1984;-58
2022/01/29 00:26:54;;;;;;;;;;;;;;;;;;4205914;28;864;-59
2022/01/29 00:29:20;;;;;;;;;;;;;;;;;;4207133;28;884;-60
2022/01/29 00:31:40;;;;;;;;;;;;;;;;;;4207118;28;1143;-61
2022/01/29 00:34:01;;;;;;;;;;;;;;;;;;4220214;28;945;-61
2022/01/29 00:36:22;;;;;;;;;;;;;;;;;;4220372;28;1122;-61
2022/01/29 00:38:42;;;;;;;;;;;;;;;;;;4206742;28;929;-60
2022/01/29 00:41:03;;;;;;;;;;;;;;;;;;4206853;28;1257;-60
2022/01/29 00:43:23;;;;;;;;;;;;;;;;;;4220302;28;1989;-60
2022/01/29 00:45:43;;;;;;;;;;;;;;;;;;4220035;28;1403;-59
2022/01/29 00:48:05;;;;;;;;;;;;;;;;;;4207191;28;1021;-61
2022/01/29 00:50:26;;;;;;;;;;;;;;;;;;4220370;28;1079;-61
2022/01/29 00:52:47;;;;;;;;;;;;;;;;;;4207449;28;825;-60
2022/01/29 00:55:08;;;;;;;;;;;;;;;;;;4206892;28;1021;-61
2022/01/29 00:57:31;;;;;;;;;;;;;;;;;;4234632;28;1352;-59
2022/01/29 00:59:52;;;;;;;;;;;;;;;;;;4206187;28;1029;-60
2022/01/29 01:02:13;;;;;;;;;;;;;;;;;;4206575;28;1457;-59
2022/01/29 01:04:36;;;;;;;;;;;;;;;;;;4206562;28;1902;-58
2022/01/29 01:06:57;;;;;;;;;;;;;;;;;;4206602;28;1333;-59
2022/01/29 01:09:17;;;;;;;;;;;;;;;;;;4206481;28;1240;-59
2022/01/29 01:11:37;;;;;;;;;;;;;;;;;;4206624;28;1157;-58
2022/01/29 01:13:57;;;;;;;;;;;;;;;;;;4206525;28;849;-58
2022/01/29 01:16:18;;;;;;;;;;;;;;;;;;4207066;28;952;-61
2022/01/29 01:18:39;;;;;;;;;;;;;;;;;;4206270;28;1068;-59
2022/01/29 01:20:59;;;;;;;;;;;;;;;;;;4206406;28;928;-60
2022/01/29 01:23:20;;;;;;;;;;;;;;;;;;4219804;28;1914;-59
2022/01/29 01:25:41;;;;;;;;;;;;;;;;;;4206400;28;1273;-61
2022/01/29 01:28:01;;;;;;;;;;;;;;;;;;4206451;28;1017;-58
2022/01/29 01:30:22;;;;;;;;;;;;;;;;;;4206761;28;919;-61
2022/01/29 01:32:43;;;;;;;;;;;;;;;;;;4206393;28;1066;-59
2022/01/29 01:35:10;;;;;;;;;;;;;;;;;;4206157;28;942;-59
2022/01/29 01:37:36;;;;;;;;;;;;;;;;;;4204882;28;1485;-59
2022/01/29 01:39:57;;;;;;;;;;;;;;;;;;4206203;28;965;-59
2022/01/29 01:42:17;;;;;;;;;;;;;;;;;;4206287;28;1021;-58
2022/01/29 01:44:38;;;;;;;;;;;;;;;;;;4205971;28;1914;-59
2022/01/29 01:46:58;;;;;;;;;;;;;;;;;;4205974;28;981;-59
2022/01/29 01:49:19;;;;;;;;;;;;;;;;;;4205841;28;1173;-60
2022/01/29 01:51:40;;;;;;;;;;;;;;;;;;4205750;28;1018;-61
2022/01/29 01:54:03;;;;;;;;;;;;;;;;;;4218781;28;926;-60
2022/01/29 01:56:31;;;;;;;;;;;;;;;;;;4218382;28;1372;-59
2022/01/29 01:58:56;;;;;;;;;;;;;;;;;;4205433;28;968;-59
2022/01/29 02:04:01;;;;;;;;;;;;;;;;;;4233135;28;1926;-59
2022/01/29 02:06:21;;;;;;;;;;;;;;;;;;4205264;28;1266;-61
2022/01/29 02:08:42;;;;;;;;;;;;;;;;;;4205070;28;1094;-61
2022/01/29 02:11:02;;;;;;;;;;;;;;;;;;4205207;28;1184;-60
2022/01/29 02:13:22;;;;;;;;;;;;;;;;;;4205125;28;922;-61
2022/01/29 02:15:43;;;;;;;;;;;;;;;;;;4205329;28;1100;-60
2022/01/29 02:18:04;;;;;;;;;;;;;;;;;;4218455;28;949;-61
2022/01/29 02:20:24;;;;;;;;;;;;;;;;;;4204900;28;1178;-61
2022/01/29 02:22:45;;;;;;;;;;;;;;;;;;4205053;28;1086;-61
2022/01/29 02:25:05;;;;;;;;;;;;;;;;;;4218321;28;1897;-61
2022/01/29 02:27:26;;;;;;;;;;;;;;;;;;4218390;28;996;-60
2022/01/29 02:29:48;;;;;;;;;;;;;;;;;;4205052;28;1168;-61
2022/01/29 02:32:09;;;;;;;;;;;;;;;;;;4204861;28;1264;-61
2022/01/29 02:34:29;;;;;;;;;;;;;;;;;;4204809;28;1179;-61
2022/01/29 02:36:49;;;;;;;;;;;;;;;;;;4204521;28;1070;-61
2022/01/29 02:39:10;;;;;;;;;;;;;;;;;;4204691;28;1093;-61
2022/01/29 02:41:30;;;;;;;;;;;;;;;;;;4204990;28;1032;-61
2022/01/29 02:43:51;;;;;;;;;;;;;;;;;;4204416;28;1983;-61
2022/01/29 02:46:21;;;;;;;;;;;;;;;;;;4204060;28;1121;-61
2022/01/29 02:48:42;;;;;;;;;;;;;;;;;;4203595;28;985;-60
2022/01/29 02:51:03;;;;;;;;;;;;;;;;;;4218198;28;991;-60
2022/01/29 02:53:23;;;;;;;;;;;;;;;;;;4205019;28;971;-58
2022/01/29 02:55:44;;;;;;;;;;;;;;;;;;4205324;28;1137;-58
2022/01/29 02:58:04;;;;;;;;;;;;;;;;;;4204970;28;931;-59
2022/01/29 03:00:25;;;;;;;;;;;;;;;;;;4205185;28;919;-59
2022/01/29 03:02:45;;;;;;;;;;;;;;;;;;4218433;28;992;-59
2022/01/29 03:05:06;;;;;;;;;;;;;;;;;;4218092;28;1980;-59
2022/01/29 03:07:27;;;;;;;;;;;;;;;;;;4205094;28;1119;-59
2022/01/29 03:09:48;;;;;;;;;;;;;;;;;;4218444;28;961;-61
2022/01/29 03:12:09;;;;;;;;;;;;;;;;;;4204838;28;995;-61
2022/01/29 03:14:29;;;;;;;;;;;;;;;;;;4204907;28;1008;-60
2022/01/29 03:16:49;;;;;;;;;;;;;;;;;;4205075;28;1288;-59
2022/01/29 03:19:10;;;;;;;;;;;;;;;;;;4204989;28;1098;-58
2022/01/29 03:21:31;;;;;;;;;;;;;;;;;;4204908;28;909;-60
2022/01/29 03:23:51;;;;;;;;;;;;;;;;;;4204720;28;1190;-60
2022/01/29 03:26:12;;;;;;;;;;;;;;;;;;4205176;28;935;-60
2022/01/29 03:28:32;;;;;;;;;;;;;;;;;;4204703;28;909;-61
2022/01/29 03:30:52;;;;;;;;;;;;;;;;;;4218150;28;1041;-60
2022/01/29 03:33:13;;;;;;;;;;;;;;;;;;4232044;28;930;-59
2022/01/29 03:35:34;;;;;;;;;;;;;;;;;;4204499;28;989;-58
2022/01/29 03:37:54;;;;;;;;;;;;;;;;;;4218088;28;1066;-60
2022/01/29 03:40:15;;;;;;;;;;;;;;;;;;4218287;28;904;-60
2022/01/29 03:42:40;;;;;;;;;;;;;;;;;;4204597;28;1052;-61
2022/01/29 03:45:01;;;;;;;;;;;;;;;;;;4204477;28;1901;-60
2022/01/29 03:47:21;;;;;;;;;;;;;;;;;;4218517;28;882;-60
2022/01/29 03:49:42;;;;;;;;;;;;;;;;;;4217788;28;1002;-58
2022/01/29 03:52:02;;;;;;;;;;;;;;;;;;4204604;28;965;-59
2022/01/29 03:54:22;;;;;;;;;;;;;;;;;;4204662;28;823;-59
2022/01/29 03:56:43;;;;;;;;;;;;;;;;;;4204455;28;1037;-59
2022/01/29 03:59:03;;;;;;;;;;;;;;;;;;4204382;28;986;-61
2022/01/29 04:01:24;;;;;;;;;;;;;;;;;;4204914;28;1085;-60
2022/01/29 04:03:44;;;;;;;;;;;;;;;;;;4220635;28;1069;-60
2022/01/29 04:09:21;;;;;;;;;;;;;;;;;;4206926;28;989;-61
2022/01/29 04:11:42;;;;;;;;;;;;;;;;;;4207676;28;929;-61
2022/01/29 04:14:02;;;;;;;;;;;;;;;;;;4206736;28;982;-61
2022/01/29 04:16:22;;;;;;;;;;;;;;;;;;4207073;28;1040;-60
2022/01/29 04:18:42;;;;;;;;;;;;;;;;;;4220640;28;1251;-60
2022/01/29 04:21:03;;;;;;;;;;;;;;;;;;4207401;28;1047;-60
2022/01/29 04:23:23;;;;;;;;;;;;;;;;;;4220441;28;1013;-60
2022/01/29 04:25:43;;;;;;;;;;;;;;;;;;4206961;28;1914;-60
2022/01/29 04:28:07;;;;;;;;;;;;;;;;;;4206477;28;837;-61
2022/01/29 04:37:25;;;;;;;;;;;;;;;;;;4206429;28;868;-61
2022/01/29 04:39:46;;;;;;;;;;;;;;;;;;4206652;28;1055;-59
2022/01/29 04:42:06;;;;;;;;;;;;;;;;;;4206642;28;1138;-59
2022/01/29 04:44:26;;;;;;;;;;;;;;;;;;4206981;28;938;-59
2022/01/29 04:46:46;;;;;;;;;;;;;;;;;;4206427;28;1275;-58
2022/01/29 04:49:06;;;;;;;;;;;;;;;;;;4206935;28;817;-59
2022/01/29 04:51:27;;;;;;;;;;;;;;;;;;4206788;28;1099;-59
2022/01/29 04:53:47;;;;;;;;;;;;;;;;;;4206932;28;993;-59
2022/01/29 04:56:07;;;;;;;;;;;;;;;;;;4205666;28;1161;-59
2022/01/29 04:58:28;;;;;;;;;;;;;;;;;;4206656;28;948;-60
2022/01/29 05:00:48;;;;;;;;;;;;;;;;;;4207452;28;1981;-59
2022/01/29 05:03:08;;;;;;;;;;;;;;;;;;4215559;28;879;-60
2022/01/29 05:05:31;;;;;;;;;;;;;;;;;;4206637;28;1905;-58
2022/01/29 05:07:52;;;;;;;;;;;;;;;;;;4206740;28;1368;-59
2022/01/29 05:10:12;;;;;;;;;;;;;;;;;;4233883;28;1012;-59
2022/01/29 05:12:42;;;;;;;;;;;;;;;;;;4243986;27;1663;-58
2022/01/29 05:15:12;;;;;;;;;;;;;;;;;;4223487;28;1558;-61
2022/01/29 05:28:07;;;;;;;;;;;;;;;;;;4222904;28;932;-58
2022/01/29 05:30:27;;;;;;;;;;;;;;;;;;4222798;28;1046;-58
2022/01/29 05:32:48;;;;;;;;;;;;;;;;;;4223257;28;1056;-58
2022/01/29 05:35:08;;;;;;;;;;;;;;;;;;4223117;28;1339;-58
2022/01/29 05:37:28;;;;;;;;;;;;;;;;;;4222201;28;972;-58
2022/01/29 05:39:49;;;;;;;;;;;;;;;;;;4222081;28;1254;-60
2022/01/29 05:42:09;;;;;;;;;;;;;;;;;;4221551;28;948;-60
2022/01/29 05:44:30;;;;;;;;;;;;;;;;;;4221275;28;961;-58
2022/01/29 05:46:50;;;;;;;;;;;;;;;;;;4220620;28;1710;-58
2022/01/29 05:49:10;;;;;;;;;;;;;;;;;;4222928;28;1091;-59
2022/01/29 05:51:31;;;;;;;;;;;;;;;;;;4223386;28;1112;-58
2022/01/29 05:53:51;;;;;;;;;;;;;;;;;;4223359;28;997;-58
2022/01/29 05:56:12;;;;;;;;;;;;;;;;;;4222990;28;944;-60
2022/01/29 05:58:32;;;;;;;;;;;;;;;;;;4222548;28;955;-60
2022/01/29 06:00:52;;;;;;;;;;;;;;;;;;4223178;28;943;-58
2022/01/29 06:03:13;;;;;;;;;;;;;;;;;;4222928;28;1274;-59
2022/01/29 06:05:33;;;;;;;;;;;;;;;;;;4222783;28;1909;-59
2022/01/29 06:07:53;;;;;;;;;;;;;;;;;;4222422;28;1067;-59
2022/01/29 06:10:14;;;;;;;;;;;;;;;;;;4222772;28;954;-58
2022/01/29 06:12:34;;;;;;;;;;;;;;;;;;4222855;28;861;-60
2022/01/29 06:14:54;;;;;;;;;;;;;;;;;;4222333;28;1502;-60
2022/01/29 06:17:15;;;;;;;;;;;;;;;;;;4221757;28;1299;-60
2022/01/29 06:19:35;;;;;;;;;;;;;;;;;;4222252;28;1086;-60
2022/01/29 06:21:55;;;;;;;;;;;;;;;;;;4221387;28;1197;-58
2022/01/29 06:24:16;;;;;;;;;;;;;;;;;;4222046;28;1018;-58
2022/01/29 06:26:36;;;;;;;;;;;;;;;;;;4222564;28;1977;-58
2022/01/29 06:28:56;;;;;;;;;;;;;;;;;;4222593;28;1323;-58
2022/01/29 06:31:16;;;;;;;;;;;;;;;;;;4221877;28;1016;-58
2022/01/29 06:33:36;;;;;;;;;;;;;;;;;;4222519;28;937;-60
2022/01/29 06:35:57;;;;;;;;;;;;;;;;;;4221257;28;1580;-59
2022/01/29 06:38:17;;;;;;;;;;;;;;;;;;4222346;28;946;-60
2022/01/29 06:40:37;;;;;;;;;;;;;;;;;;4222024;28;1088;-60
2022/01/29 06:42:58;;;;;;;;;;;;;;;;;;4222297;28;871;-60
2022/01/29 06:45:18;;;;;;;;;;;;;;;;;;4222401;28;1911;-60
2022/01/29 06:47:39;;;;;;;;;;;;;;;;;;4222466;28;825;-59
2022/01/29 06:50:00;;;;;;;;;;;;;;;;;;4222394;28;985;-58
2022/01/29 06:52:21;;;;;;;;;;;;;;;;;;4222387;28;903;-58
2022/01/29 06:54:41;;;;;;;;;;;;;;;;;;4221763;28;1037;-60
2022/01/29 06:57:01;;;;;;;;;;;;;;;;;;4221832;28;1198;-60
2022/01/29 06:59:21;;;;;;;;;;;;;;;;;;4222305;28;1002;-60
2022/01/29 07:01:41;;;;;;;;;;;;;;;;;;4222118;28;1049;-60
2022/01/29 07:04:02;;;;;;;;;;;;;;;;;;4222731;28;954;-60
2022/01/29 07:06:22;;;;;;;;;;;;;;;;;;4222089;28;1922;-60
2022/01/29 07:08:42;;;;;;;;;;;;;;;;;;4222532;28;933;-59
2022/01/29 07:11:03;;;;;;;;;;;;;;;;;;4222060;28;1356;-60
2022/01/29 07:13:25;;;;;;;;;;;;;;;;;;4222163;28;1159;-60
2022/01/29 07:15:45;;;;;;;;;;;;;;;;;;4222071;28;1115;-60
2022/01/29 07:18:05;;;;;;;;;;;;;;;;;;4222143;28;916;-60
2022/01/29 07:20:25;;;;;;;;;;;;;;;;;;4206016;28;903;-60
2022/01/29 07:22:46;;;;;;;;;;;;;;;;;;4221833;28;1035;-60
2022/01/29 07:25:06;;;;;;;;;;;;;;;;;;4221836;28;924;-60
2022/01/29 07:27:26;;;;;;;;;;;;;;;;;;4220399;28;985;-60
2022/01/29 07:29:47;;;;;;;;;;;;;;;;;;4221890;28;1055;-59
2022/01/29 07:32:08;;;;;;;;;;;;;;;;;;4206473;28;1050;-58
2022/01/29 07:34:28;;;;;;;;;;;;;;;;;;4221932;28;1164;-60
2022/01/29 07:36:49;;;;;;;;;;;;;;;;;;4224741;28;1157;-58
2022/01/29 07:39:09;;;;;;;;;;;;;;;;;;4224998;28;996;-58
2022/01/29 07:41:30;;;;;;;;;;;;;;;;;;4225097;28;1298;-59
2022/01/29 07:43:51;;;;;;;;;;;;;;;;;;4224662;28;968;-60
2022/01/29 07:46:12;;;;;;;;;;;;;;;;;;4224597;28;1984;-60
2022/01/29 07:48:32;;;;;;;;;;;;;;;;;;4224638;28;931;-60
2022/01/29 07:50:53;;;;;;;;;;;;;;;;;;4224679;28;824;-60
2022/01/29 07:53:13;;;;;;;;;;;;;;;;;;4224524;28;944;-60
2022/01/29 07:55:34;;;;;;;;;;;;;;;;;;4222974;28;1236;-60
2022/01/29 07:57:54;;;;;;;;;;;;;;;;;;4224366;28;946;-60
2022/01/29 08:00:14;;;;;;;;;;;;;;;;;;4225099;28;823;-60
2022/01/29 08:02:35;;;;;;;;;;;;;;;;;;4224375;28;997;-60
2022/01/29 08:04:55;;;;;;;;;;;;;;;;;;4224295;28;937;-60
2022/01/29 08:07:16;;;;;;;;;;;;;;;;;;4224010;28;1975;-60
2022/01/29 08:09:36;;;;;;;;;;;;;;;;;;4224120;28;980;-60
2022/01/29 08:11:56;;;;;;;;;;;;;;;;;;4222647;28;986;-61
2022/01/29 08:14:17;;;;;;;;;;;;;;;;;;4224810;28;949;-61
2022/01/29 08:16:37;;;;;;;;;;;;;;;;;;4223961;28;961;-61
2022/01/29 08:18:58;;;;;;;;;;;;;;;;;;4222544;28;1300;-61
2022/01/29 08:21:18;;;;;;;;;;;;;;;;;;4223862;28;982;-61
2022/01/29 08:23:39;;;;;;;;;;;;;;;;;;4224022;28;813;-60
2022/01/29 08:25:59;;;;;;;;;;;;;;;;;;4222994;28;1909;-58
2022/01/29 08:28:20;;;;;;;;;;;;;;;;;;4223849;28;1246;-59
2022/01/29 08:30:40;;;;;;;;;;;;;;;;;;4224636;28;1006;-59
2022/01/29 08:33:01;;;;;;;;;;;;;;;;;;4223651;28;946;-59
2022/01/29 08:35:21;;;;;;;;;;;;;;;;;;4223977;28;955;-60
2022/01/29 08:37:41;;;;;;;;;;;;;;;;;;4222481;28;938;-60
2022/01/29 08:40:02;;;;;;;;;;;;;;;;;;4222390;28;865;-60
2022/01/29 08:42:22;;;;;;;;;;;;;;;;;;4224248;28;1350;-59
2022/01/29 08:44:43;;;;;;;;;;;;;;;;;;4223719;28;1141;-58
2022/01/29 08:47:03;;;;;;;;;;;;;;;;;;4221843;28;1976;-59
2022/01/29 08:49:25;;;;;;;;;;;;;;;;;;4223742;28;1101;-59
2022/01/29 08:51:45;;;;;;;;;;;;;;;;;;4223680;28;945;-59
2022/01/29 08:54:05;;;;;;;;;;;;;;;;;;4224252;28;941;-59
2022/01/29 08:56:26;;;;;;;;;;;;;;;;;;4223897;28;1351;-59
2022/01/29 08:58:46;;;;;;;;;;;;;;;;;;4222770;28;920;-60
2022/01/29 09:01:07;;;;;;;;;;;;;;;;;;4223757;28;1150;-58
2022/01/29 09:03:29;;;;;;;;;;;;;;;;;;4223737;28;1162;-60
2022/01/29 09:05:49;;;;;;;;;;;;;;;;;;4223861;28;818;-58
2022/01/29 09:08:10;;;;;;;;;;;;;;;;;;4224027;28;1027;-58
2022/01/29 09:10:31;;;;;;;;;;;;;;;;;;4223859;28;991;-60
2022/01/29 09:12:51;;;;;;;;;;;;;;;;;;4207644;28;983;-58
2022/01/29 09:15:12;;;;;;;;;;;;;;;;;;4223289;28;1078;-59
2022/01/29 09:17:32;;;;;;;;;;;;;;;;;;4222370;28;1003;-59
2022/01/29 09:19:53;;;;;;;;;;;;;;;;;;4222393;28;1151;-60
2022/01/29 09:22:14;;;;;;;;;;;;;;;;;;4223555;28;961;-60
2022/01/29 09:24:35;;;;;;;;;;;;;;;;;;4223207;28;1021;-59
2022/01/29 09:26:56;;;;;;;;;;;;;;;;;;4223744;28;1909;-60
2022/01/29 09:29:16;;;;;;;;;;;;;;;;;;4223121;28;993;-60
2022/01/29 09:31:38;;;;;;;;;;;;;;;;;;4222642;28;2730;-60
2022/01/29 09:33:58;;;;;;;;;;;;;;;;;;4206518;28;1314;-59
2022/01/29 09:36:18;;;;;;;;;;;;;;;;;;4219057;28;942;-58
2022/01/29 09:38:39;;;;;;;;;;;;;;;;;;4223734;28;927;-58
2022/01/29 09:40:59;;;;;;;;;;;;;;;;;;4222199;28;1019;-59
2022/01/29 09:43:20;;;;;;;;;;;;;;;;;;4222164;28;1012;-60
2022/01/29 09:45:40;;;;;;;;;;;;;;;;;;4223066;28;946;-60
2022/01/29 09:48:02;;;;;;;;;;;;;;;;;;4221894;28;2022;-60
2022/01/29 09:50:22;;;;;;;;;;;;;;;;;;4222862;28;1048;-61
2022/01/29 09:52:43;;;;;;;;;;;;;;;;;;4219743;28;1744;-60
2022/01/29 09:55:04;;;;;;;;;;;;;;;;;;4213448;28;2610;-59
2022/01/29 09:57:24;;;;;;;;;;;;;;;;;;4208538;28;1110;-59
2022/01/29 09:59:46;;;;;;;;;;;;;;;;;;4204965;28;998;-58
2022/01/29 10:02:07;;;;;;;;;;;;;;;;;;4209419;28;2664;-59
2022/01/29 10:04:29;;;;;;;;;;;;;;;;;;4209631;28;1019;-59
2022/01/29 10:06:50;;;;;;;;;;;;;;;;;;4222636;28;1905;-59
2022/01/29 10:09:12;;;;;;;;;;;;;;;;;;4221960;28;1784;-59
2022/01/29 10:11:32;;;;;;;;;;;;;;;;;;4221348;28;1701;-61
2022/01/29 10:13:53;;;;;;;;;;;;;;;;;;4222526;28;1177;-63
2022/01/29 10:16:14;;;;;;;;;;;;;;;;;;4218792;28;2040;-62
2022/01/29 10:18:35;;;;;;;;;;;;;;;;;;4213332;28;1065;-66
2022/01/29 10:20:56;;;;;;;;;;;;;;;;;;4208532;28;2583;-67
2022/01/29 10:23:16;;;;;;;;;;;;;;;;;;4213704;28;2308;-66
2022/01/29 10:25:37;;;;;;;;;;;;;;;;;;4210119;28;1778;-66
2022/01/29 10:27:57;;;;;;;;;;;;;;;;;;4213403;28;2471;-66
2022/01/29 10:30:18;;;;;;;;;;;;;;;;;;4214635;28;1006;-66
2022/01/29 10:32:38;;;;;;;;;;;;;;;;;;4208524;28;1330;-65
2022/01/29 10:34:59;;;;;;;;;;;;;;;;;;4221624;28;1065;-68
2022/01/29 10:37:20;;;;;;;;;;;;;;;;;;4220363;28;1142;-67
2022/01/29 10:39:41;;;;;;;;;;;;;;;;;;4220065;28;1665;-68
2022/01/29 10:42:01;;;;;;;;;;;;;;;;;;4220530;28;1457;-67
2022/01/29 10:44:22;;;;;;;;;;;;;;;;;;4218579;28;1761;-68
2022/01/29 10:46:43;;;;;;;;;;;;;;;;;;4221163;28;1863;-67
2022/01/29 10:49:03;;;;;;;;;;;;;;;;;;4221133;28;1577;-68
2022/01/29 10:51:23;;;;;;;;;;;;;;;;;;4218276;28;2456;-68
2022/01/29 10:53:43;;;;;;;;;;;;;;;;;;4215050;28;1734;-67
2022/01/29 10:56:04;;;;;;;;;;;;;;;;;;4221183;28;1245;-62
2022/01/29 10:58:25;;;;;;;;;;;;;;;;;;4217334;28;1948;-62
2022/01/29 11:00:45;;;;;;;;;;;;;;;;;;4221440;28;1095;-63
2022/01/29 11:03:06;;;;;;;;;;;;;;;;;;4220680;28;1334;-65
2022/01/29 11:05:31;;;;;;;;;;;;;;;;;;4217065;28;3140;-64
2022/01/29 11:07:52;;;;;;;;;;;;;;;;;;4220449;28;1897;-65
2022/01/29 11:10:13;;;;;;;;;;;;;;;;;;4217896;28;2978;-64
2022/01/29 11:12:36;;;;;;;;;;;;;;;;;;4220256;28;1242;-66
2022/01/29 11:14:58;;;;;;;;;;;;;;;;;;4208145;28;1684;-65
2022/01/29 11:17:19;;;;;;;;;;;;;;;;;;4218718;28;2047;-65
2022/01/29 11:19:40;;;;;;;;;;;;;;;;;;4221127;28;1916;-64
2022/01/29 11:22:02;;;;;;;;;;;;;;;;;;4217696;28;2067;-66
2022/01/29 11:24:22;;;;;;;;;;;;;;;;;;4219115;28;1714;-66
2022/01/29 11:26:44;;;;;;;;;;;;;;;;;;4218697;28;1573;-63
2022/01/29 11:29:04;;;;;;;;;;;;;;;;;;4221049;28;1367;-65
2022/01/29 11:31:28;;;;;;;;;;;;;;;;;;4221249;28;1305;-65
2022/01/29 11:33:48;;;;;;;;;;;;;;;;;;4220831;28;1557;-66
2022/01/29 11:36:09;;;;;;;;;;;;;;;;;;4221362;28;940;-65
2022/01/29 11:38:29;;;;;;;;;;;;;;;;;;4221600;28;992;-65
2022/01/29 11:40:50;;;;;;;;;;;;;;;;;;4220003;28;1300;-65
2022/01/29 11:43:11;;;;;;;;;;;;;;;;;;4221766;28;1000;-65
2022/01/29 11:45:32;;;;;;;;;;;;;;;;;;4221601;28;882;-65
2022/01/29 11:47:53;;;;;;;;;;;;;;;;;;4221694;28;1978;-65
2022/01/29 11:50:13;;;;;;;;;;;;;;;;;;4220009;28;1161;-65
2022/01/29 11:52:34;;;;;;;;;;;;;;;;;;4221496;28;1095;-65
2022/01/29 11:54:55;;;;;;;;;;;;;;;;;;4218461;28;3097;-65
2022/01/29 11:57:18;;;;;;;;;;;;;;;;;;4217714;28;1169;-65
2022/01/29 11:59:38;;;;;;;;;;;;;;;;;;4204666;28;1245;-65
2022/01/29 12:01:59;;;;;;;;;;;;;;;;;;4204620;28;1271;-66
2022/01/29 12:04:20;;;;;;;;;;;;;;;;;;4205525;28;1336;-66
2022/01/29 12:06:43;;;;;;;;;;;;;;;;;;4204695;28;1039;-66
2022/01/29 12:09:05;;;;;;;;;;;;;;;;;;4204482;28;1910;-62
2022/01/29 12:11:26;;;;;;;;;;;;;;;;;;4203672;28;1031;-62
2022/01/29 12:13:47;;;;;;;;;;;;;;;;;;4203516;28;832;-62
2022/01/29 12:16:09;;;;;;;;;;;;;;;;;;4204109;28;918;-62
2022/01/29 12:18:29;;;;;;;;;;;;;;;;;;4204186;28;1350;-62
2022/01/29 12:20:50;;;;;;;;;;;;;;;;;;4218778;28;1518;-62
2022/01/29 12:23:10;;;;;;;;;;;;;;;;;;4220584;28;1458;-62
2022/01/29 12:28:40;;;;;;;;;;;;;;;;;;4223563;28;1909;-58
2022/01/29 12:31:02;;;;;;;;;;;;;;;;;;4222899;28;1367;-58
2022/01/29 12:33:24;;;;;;;;;;;;;;;;;;4222793;28;1626;-58
2022/01/29 12:35:44;;;;;;;;;;;;;;;;;;4222831;28;1461;-58
2022/01/29 12:38:05;;;;;;;;;;;;;;;;;;4222840;28;1467;-58
2022/01/29 12:40:26;;;;;;;;;;;;;;;;;;4223338;28;1758;-57
2022/01/29 12:42:55;;;;;;;;;;;;;;;;;;4223651;28;1881;-57
2022/01/29 12:45:16;;;;;;;;;;;;;;;;;;4221647;28;1502;-58
2022/01/29 12:47:36;;;;;;;;;;;;;;;;;;4223652;28;1981;-58
2022/01/29 12:49:57;;;;;;;;;;;;;;;;;;4222360;28;1740;-56
2022/01/29 12:52:18;;;;;;;;;;;;;;;;;;4223754;28;1585;-55
2022/01/29 12:54:38;;;;;;;;;;;;;;;;;;4222507;28;1578;-56
2022/01/29 12:57:00;;;;;;;;;;;;;;;;;;4220237;28;1686;-56
2022/01/29 12:59:20;;;;;;;;;;;;;;;;;;4224762;28;1072;-56
2022/01/29 13:01:41;;;;;;;;;;;;;;;;;;4224592;28;987;-56
2022/01/29 13:04:02;;;;;;;;;;;;;;;;;;4224981;28;1082;-55
2022/01/29 13:06:22;;;;;;;;;;;;;;;;;;4224557;28;1034;-55
2022/01/29 13:08:43;;;;;;;;;;;;;;;;;;4224863;28;1980;-55
2022/01/29 13:11:03;;;;;;;;;;;;;;;;;;4224043;28;1001;-57
2022/01/29 13:13:23;;;;;;;;;;;;;;;;;;4222788;28;1713;-56
2022/01/29 13:15:44;;;;;;;;;;;;;;;;;;4221949;28;1769;-56
2022/01/29 13:18:04;;;;;;;;;;;;;;;;;;4221764;28;1594;-55
2022/01/29 13:20:24;;;;;;;;;;;;;;;;;;4222131;28;2075;-54
2022/01/29 13:22:45;;;;;;;;;;;;;;;;;;4221804;28;1581;-55
2022/01/29 13:25:05;;;;;;;;;;;;;;;;;;4223002;28;1372;-55
2022/01/29 13:27:27;;;;;;;;;;;;;;;;;;4221785;28;1769;-55
2022/01/29 13:29:48;;;;;;;;;;;;;;;;;;4222631;28;1601;-55
2022/01/29 13:32:09;;;;;;;;;;;;;;;;;;4223329;28;945;-55
2022/01/29 13:34:29;;;;;;;;;;;;;;;;;;4223001;28;932;-55
